Observations for ISLAY PORT ELLEN, United Kingdom (EGPI)

EGPI 250320Z AUTO 32006KT 9999 NCD 02/01 Q1009 RERA 
EGPI 250250Z AUTO 33007KT 9999 -RA FEW017/// BKN042/// 02/01 Q1009  
EGPI 250220Z AUTO 32004KT 2200 +RA SCT017/// BKN021/// 02/01 Q1010  
EGPI 250150Z AUTO 34010KT 9999 FEW021/// BKN034/// 03/02 Q1009 RERA 
EGPI 250120Z AUTO 01006KT 7000 RA FEW014/// 02/02 Q1009 
EGPI 250050Z AUTO 01011KT 340V050 9999 -RA FEW016/// SCT023/// 03/02 Q1009  
EGPI 250020Z AUTO 01008KT 9999 SCT042/// 03/01 Q1008 RERA   
EGPI 242350Z AUTO 35014KT 9000 RA FEW028/// SCT047/// 02/01 Q1009   
EGPI 242320Z AUTO 30016G30KT 9999 FEW041/// 06/01 Q1008 RERA
EGPI 242250Z AUTO 33007KT 9999 FEW032/// 03/01 Q1008 RERA   
EGPI 242220Z AUTO 30017KT 9999 FEW033/// 05/00 Q1008 RERA   
EGPI 242150Z AUTO 30016KT 9999 NCD 05/01 Q1008  
EGPI 242120Z AUTO 28015KT 9999 NCD 05/02 Q1008 RERA 
EGPI 242050Z AUTO 27010KT 9999 NCD 04/01 Q1008 RERA 
EGPI 242020Z AUTO 24016KT 9999 -RA SCT032/// 03/02 Q1008
EGPI 241950Z AUTO 27018KT 9999 -RA FEW030/// 05/01 Q1008
EGPI 241920Z AUTO 28015KT 9999 NCD 05/01 Q1008  
EGPI 241850Z 27018KT CAVOK 04/01 Q1008  
EGPI 241820Z 31015KT 280V340 9999 SCT032 05/02 Q1008
EGPI 241750Z 29014KT 9999 FEW043 BKN048 05/01 Q1008 
EGPI 241720Z 28013KT CAVOK 05/01 Q1007  
EGPI 241650Z 28016KT 9999 FEW035CB SCT038 04/01 Q1007   
EGPI 241620Z 30014KT CAVOK 04/00 Q1007  
EGPI 241550Z 27013KT 9999 SCT024CB 04/01 Q1007  
EGPI 241520Z 30022KT 9999 VCSH SCT035CB SCT048 04/00 Q1007  
EGPI 241450Z 28017KT 9999 -SHRASN FEW034CB BKN048 05/01 Q1007   
EGPI 241420Z 28015KT CAVOK 05/00 Q1007  
EGPI 241350Z 29015KT 9999 FEW025 05/01 Q1007
EGPI 241320Z 29016KT 7000 VCSH SCT035CB BKN048 05/01 Q1006  
EGPI 241250Z 32012KT 9999 -SHRA FEW031 BKN048 04/02 Q1006   
EGPI 241220Z AUTO 29015KT 9999 NCD 05/00 Q1006  
EGPI 241150Z AUTO 29024KT 9999 NCD 05/01 Q1006  
EGPI 241120Z 28017KT 9999 FEW032 BKN048 06/M00 Q1006
EGPI 241050Z 28014KT 9999 FEW030 BKN048 06/01 Q1006 
EGPI 241020Z 28017KT 9999 FEW030 05/01 Q1006
EGPI 240950Z 28016KT 9999 FEW016 SCT048 05/02 Q1006 
EGPI 240920Z 25019KT 9999 -SHRA SCT015 BKN025 04/03 Q1005   
EGPI 240850Z 24013KT 190V280 4000 SHRASN BKN017 BKN048 03/02 Q1006  
EGPI 240820Z 23005KT 9999 FEW022 03/02 Q1005
EGPI 240750Z 29015KT 9999 VCSH FEW011 SCT023 BKN043 03/02 Q1006 
EGPI 240720Z AUTO 26012KT 9999 FEW035/// BKN045/// 05/01 Q1005 RERA 
EGPI 240650Z AUTO 09002KT 9999 FEW035/// 02/01 Q1005 RERA   
EGPI 240620Z AUTO 11007KT 9999 FZUP FEW037/// 01/01 Q1005   
EGPI 240550Z AUTO 12006KT 9999 FEW041/// M00/M01 Q1005  
EGPI 240520Z AUTO 04005KT 9999 NCD M00/M01 Q1005
EGPI 240450Z AUTO 04004KT 9999 NCD 00/00 Q1005  
EGPI 240420Z AUTO 03005KT 9999 FEW027/// 00/00 Q1004 RERA   
EGPI 240350Z AUTO 01005KT 9999 SCT025/// 01/01 Q1004 RERA   
EGPI 240320Z AUTO 01004KT 9999 NCD 01/00 Q1004 RESN 
EGPI 240250Z AUTO 01008KT 350V050 9999 FEW014/// 02/01 Q1004 RERA